createdAt,value
2023-04-25T00:00:48.278Z,1002.51
2023-04-25T00:01:48.287Z,1002.61
2023-04-25T00:02:48.325Z,1002.53
2023-04-25T00:03:48.561Z,1002.55
2023-04-25T00:04:48.615Z,1002.56
2023-04-25T00:05:48.288Z,1002.54
2023-04-25T00:06:48.216Z,1002.51
2023-04-25T00:07:48.229Z,1002.55
2023-04-25T00:08:48.193Z,1002.57
2023-04-25T00:09:48.220Z,1002.57
2023-04-25T00:10:48.198Z,1002.56
2023-04-25T00:11:48.162Z,1002.54
2023-04-25T00:12:48.150Z,1002.57
2023-04-25T00:13:48.361Z,1002.54
2023-04-25T00:14:48.139Z,1002.58
2023-04-25T00:15:48.189Z,1002.58
2023-04-25T00:16:48.128Z,1002.58
2023-04-25T00:17:48.196Z,1002.53
2023-04-25T00:18:48.099Z,1002.55
2023-04-25T00:19:48.084Z,1002.54
2023-04-25T00:20:48.166Z,1002.55
2023-04-25T00:21:48.059Z,1002.57
2023-04-25T00:22:48.045Z,1002.58
2023-04-25T00:23:48.294Z,1002.59
2023-04-25T00:24:48.025Z,1002.62
2023-04-25T00:25:48.023Z,1002.58
2023-04-25T00:26:47.997Z,1002.60
2023-04-25T00:27:47.998Z,1002.62
2023-04-25T00:28:47.979Z,1002.58
2023-04-25T00:29:47.991Z,1002.55
2023-04-25T00:30:47.954Z,1002.55
2023-04-25T00:31:47.975Z,1002.56
2023-04-25T00:32:47.946Z,1002.56
2023-04-25T00:33:48.052Z,1002.55
2023-04-25T00:34:47.898Z,1002.59
2023-04-25T00:35:47.904Z,1002.55
2023-04-25T00:36:47.872Z,1002.55
2023-04-25T00:37:47.889Z,1002.50
2023-04-25T00:38:47.850Z,1002.55
2023-04-25T00:39:47.854Z,1002.56
2023-04-25T00:40:47.859Z,1002.55
2023-04-25T00:41:47.836Z,1002.54
2023-04-25T00:42:47.824Z,1002.56
2023-04-25T00:43:47.988Z,1002.57
2023-04-25T00:44:47.805Z,1002.55
2023-04-25T00:45:47.794Z,1002.60
2023-04-25T00:46:47.777Z,1002.54
2023-04-25T00:47:47.821Z,1002.58
2023-04-25T00:48:47.754Z,1002.62
2023-04-25T00:49:47.730Z,1002.55
2023-04-25T00:50:47.752Z,1002.58
2023-04-25T00:51:47.721Z,1002.55
2023-04-25T00:52:47.730Z,1002.56
2023-04-25T00:53:47.720Z,1002.50
2023-04-25T00:54:47.680Z,1002.53
2023-04-25T00:55:47.672Z,1002.50
2023-04-25T00:56:47.664Z,1002.53
2023-04-25T00:57:47.653Z,1002.50
2023-04-25T00:58:47.627Z,1002.51
2023-04-25T00:59:47.636Z,1002.52
2023-04-25T01:00:47.672Z,1002.48
2023-04-25T01:01:47.639Z,1002.53
2023-04-25T01:02:47.725Z,1002.49
2023-04-25T01:03:47.717Z,1002.48
2023-04-25T01:04:47.561Z,1002.45
2023-04-25T01:05:47.562Z,1002.47
2023-04-25T01:06:47.603Z,1002.47
2023-04-25T01:07:47.540Z,1002.51
2023-04-25T01:08:47.535Z,1002.55
2023-04-25T01:09:47.508Z,1002.53
2023-04-25T01:10:47.510Z,1002.51
2023-04-25T01:11:47.505Z,1002.55
2023-04-25T01:12:47.492Z,1002.55
2023-04-25T01:13:47.594Z,1002.53
2023-04-25T01:14:47.461Z,1002.52
2023-04-25T01:15:47.445Z,1002.54
2023-04-25T01:16:47.533Z,1002.52
2023-04-25T01:17:47.557Z,1002.55
2023-04-25T01:18:47.413Z,1002.52
2023-04-25T01:19:47.391Z,1002.55
2023-04-25T01:20:47.396Z,1002.46
2023-04-25T01:21:47.386Z,1002.51
2023-04-25T01:22:47.362Z,1002.53
2023-04-25T01:23:47.400Z,1002.53
2023-04-25T01:24:47.349Z,1002.54
2023-04-25T01:25:47.342Z,1002.55
2023-04-25T01:26:47.328Z,1002.56
2023-04-25T01:27:47.328Z,1002.58
2023-04-25T01:28:47.293Z,1002.60
2023-04-25T01:29:47.298Z,1002.61
2023-04-25T01:30:47.287Z,1002.59
2023-04-25T01:31:47.297Z,1002.61
2023-04-25T01:32:47.258Z,1002.63
2023-04-25T01:33:47.290Z,1002.64
2023-04-25T01:34:47.235Z,1002.60
2023-04-25T01:35:47.216Z,1002.65
2023-04-25T01:36:47.232Z,1002.64
2023-04-25T01:37:47.278Z,1002.64
2023-04-25T01:38:47.183Z,1002.62
2023-04-25T01:39:47.191Z,1002.62
2023-04-25T01:40:47.166Z,1002.63
2023-04-25T01:41:47.163Z,1002.59
2023-04-25T01:42:47.165Z,1002.63
2023-04-25T01:43:47.126Z,1002.65
2023-04-25T01:44:47.140Z,1002.64
2023-04-25T01:45:47.183Z,1002.64
2023-04-25T01:46:47.105Z,1002.64
2023-04-25T01:47:47.116Z,1002.65
2023-04-25T01:48:47.076Z,1002.64
2023-04-25T01:49:47.100Z,1002.64
2023-04-25T01:50:47.062Z,1002.69
2023-04-25T01:51:47.055Z,1002.69
2023-04-25T01:52:47.031Z,1002.71
2023-04-25T01:53:47.027Z,1002.71
2023-04-25T01:54:47.033Z,1002.66
2023-04-25T01:55:47.015Z,1002.71
2023-04-25T01:56:46.997Z,1002.77
2023-04-25T01:57:46.980Z,1002.73
2023-04-25T01:58:46.973Z,1002.76
2023-04-25T01:59:46.957Z,1002.79
2023-04-25T02:00:46.958Z,1002.76
2023-04-25T02:01:46.988Z,1002.75
2023-04-25T02:02:47.075Z,1002.77
2023-04-25T02:03:46.984Z,1002.76
2023-04-25T02:04:46.916Z,1002.79
2023-04-25T02:05:46.937Z,1002.78
2023-04-25T02:06:46.904Z,1002.77
2023-04-25T02:07:46.881Z,1002.80
2023-04-25T02:08:46.842Z,1002.79
2023-04-25T02:09:46.861Z,1002.83
2023-04-25T02:10:46.823Z,1002.86
2023-04-25T02:11:46.825Z,1002.84
2023-04-25T02:12:46.882Z,1002.80
2023-04-25T02:13:46.809Z,1002.82
2023-04-25T02:14:46.786Z,1002.79
2023-04-25T02:15:46.871Z,1002.81
2023-04-25T02:16:46.890Z,1002.81
2023-04-25T02:17:46.777Z,1002.82
2023-04-25T02:18:46.749Z,1002.82
2023-04-25T02:19:47.006Z,1002.80
2023-04-25T02:20:46.714Z,1002.79
2023-04-25T02:21:46.759Z,1002.78
2023-04-25T02:22:46.727Z,1002.76
2023-04-25T02:23:46.682Z,1002.77
2023-04-25T02:24:46.676Z,1002.76
2023-04-25T02:25:46.671Z,1002.81
2023-04-25T02:26:46.664Z,1002.80
2023-04-25T02:27:46.655Z,1002.78
2023-04-25T02:28:46.626Z,1002.80
2023-04-25T02:29:46.625Z,1002.82
2023-04-25T02:30:46.617Z,1002.82
2023-04-25T02:31:46.710Z,1002.88
2023-04-25T02:32:46.636Z,1002.86
2023-04-25T02:33:46.568Z,1002.92
2023-04-25T02:34:46.570Z,1002.91
2023-04-25T02:35:46.567Z,1002.93
2023-04-25T02:36:46.549Z,1002.97
2023-04-25T02:37:46.561Z,1002.89
2023-04-25T02:38:46.532Z,1002.97
2023-04-25T02:39:46.517Z,1002.92
2023-04-25T02:40:46.505Z,1002.91
2023-04-25T02:41:46.498Z,1002.93
2023-04-25T02:42:46.499Z,1002.94
2023-04-25T02:43:46.463Z,1002.91
2023-04-25T02:44:46.444Z,1002.93
2023-04-25T02:45:46.452Z,1002.94
2023-04-25T02:46:46.499Z,1002.95
2023-04-25T02:47:46.472Z,1002.91
2023-04-25T02:48:46.416Z,1002.93
2023-04-25T02:49:46.405Z,1002.94
2023-04-25T02:50:46.387Z,1002.95
2023-04-25T02:51:46.384Z,1002.95
2023-04-25T02:52:46.351Z,1002.93
2023-04-25T02:53:46.404Z,1002.94
2023-04-25T02:54:46.332Z,1002.95
2023-04-25T02:55:46.318Z,1002.93
2023-04-25T02:56:46.324Z,1002.94
2023-04-25T02:57:46.308Z,1002.88
2023-04-25T02:58:46.301Z,1002.90
2023-04-25T02:59:46.291Z,1002.91
2023-04-25T03:00:46.308Z,1002.91
2023-04-25T03:01:46.254Z,1002.94
2023-04-25T03:02:46.303Z,1002.93
2023-04-25T03:03:46.362Z,1002.92
2023-04-25T03:04:46.243Z,1002.96
2023-04-25T03:05:46.216Z,1002.94
2023-04-25T03:06:46.232Z,1002.95
2023-04-25T03:07:46.203Z,1002.96
2023-04-25T03:08:46.175Z,1002.97
2023-04-25T03:09:46.193Z,1002.98
2023-04-25T03:10:46.188Z,1002.94
2023-04-25T03:11:46.158Z,1002.97
2023-04-25T03:12:46.157Z,1003.00
2023-04-25T03:13:46.117Z,1003.00
2023-04-25T03:14:46.114Z,1003.00
2023-04-25T03:15:46.113Z,1002.95
2023-04-25T03:16:46.110Z,1003.01
2023-04-25T03:17:46.117Z,1003.01
2023-04-25T03:18:46.089Z,1002.93
2023-04-25T03:19:46.054Z,1002.93
2023-04-25T03:20:46.069Z,1002.92
2023-04-25T03:21:46.065Z,1002.91
2023-04-25T03:22:46.023Z,1002.90
2023-04-25T03:23:46.032Z,1002.90
2023-04-25T03:24:46.025Z,1002.92
2023-04-25T03:25:46.036Z,1002.90
2023-04-25T03:26:45.990Z,1002.91
2023-04-25T03:27:45.980Z,1002.94
2023-04-25T03:28:45.966Z,1002.95
2023-04-25T03:29:45.957Z,1002.95
2023-04-25T03:30:45.961Z,1002.91
2023-04-25T03:31:45.962Z,1002.91
2023-04-25T03:32:45.929Z,1002.94
2023-04-25T03:33:45.911Z,1002.94
2023-04-25T03:34:45.887Z,1002.94
2023-04-25T03:35:45.885Z,1002.94
2023-04-25T03:36:45.889Z,1002.92
2023-04-25T03:37:45.866Z,1002.92
2023-04-25T03:38:45.848Z,1002.93
2023-04-25T03:39:45.844Z,1002.96
2023-04-25T03:40:45.834Z,1002.98
2023-04-25T03:41:45.844Z,1002.94
2023-04-25T03:42:45.822Z,1002.97
2023-04-25T03:43:45.810Z,1002.97
2023-04-25T03:44:45.798Z,1002.97
2023-04-25T03:45:45.805Z,1002.98
2023-04-25T03:46:45.762Z,1002.98
2023-04-25T03:47:45.836Z,1003.06
2023-04-25T03:48:45.740Z,1003.02
2023-04-25T03:49:45.719Z,1003.03
2023-04-25T03:50:45.717Z,1003.04
2023-04-25T03:51:45.714Z,1003.06
2023-04-25T03:52:45.705Z,1003.04
2023-04-25T03:53:45.693Z,1003.03
2023-04-25T03:54:45.683Z,1003.07
2023-04-25T03:55:45.675Z,1003.04
2023-04-25T03:56:45.658Z,1003.07
2023-04-25T03:57:45.678Z,1003.10
2023-04-25T03:58:45.658Z,1003.13
2023-04-25T03:59:45.602Z,1003.15
2023-04-25T04:00:45.616Z,1003.13
2023-04-25T04:01:45.613Z,1003.10
2023-04-25T04:02:45.929Z,1003.11
2023-04-25T04:03:45.888Z,1003.15
2023-04-25T04:04:45.854Z,1003.13
2023-04-25T04:05:45.584Z,1003.14
2023-04-25T04:06:45.544Z,1003.14
2023-04-25T04:07:45.540Z,1003.17
2023-04-25T04:08:45.530Z,1003.15
2023-04-25T04:09:45.529Z,1003.18
2023-04-25T04:10:45.492Z,1003.22
2023-04-25T04:11:45.485Z,1003.20
2023-04-25T04:12:45.463Z,1003.21
2023-04-25T04:13:45.486Z,1003.19
2023-04-25T04:14:45.455Z,1003.23
2023-04-25T04:15:45.474Z,1003.25
2023-04-25T04:16:45.420Z,1003.23
2023-04-25T04:17:45.440Z,1003.30
2023-04-25T04:18:45.407Z,1003.24
2023-04-25T04:19:45.394Z,1003.21
2023-04-25T04:20:45.393Z,1003.28
2023-04-25T04:21:45.384Z,1003.31
2023-04-25T04:22:45.370Z,1003.28
2023-04-25T04:23:45.346Z,1003.28
2023-04-25T04:24:45.342Z,1003.30
2023-04-25T04:25:45.332Z,1003.34
2023-04-25T04:26:45.319Z,1003.32
2023-04-25T04:27:45.305Z,1003.34
2023-04-25T04:28:45.299Z,1003.36
2023-04-25T04:29:45.330Z,1003.33
2023-04-25T04:30:45.269Z,1003.33
2023-04-25T04:31:45.375Z,1003.37
2023-04-25T04:32:45.267Z,1003.40
2023-04-25T04:33:45.229Z,1003.39
2023-04-25T04:34:45.222Z,1003.37
2023-04-25T04:35:45.210Z,1003.33
2023-04-25T04:36:45.211Z,1003.30
2023-04-25T04:37:45.185Z,1003.37
2023-04-25T04:38:45.190Z,1003.33
2023-04-25T04:39:45.165Z,1003.36
2023-04-25T04:40:45.165Z,1003.34
2023-04-25T04:41:45.172Z,1003.41
2023-04-25T04:42:45.137Z,1003.40
2023-04-25T04:43:45.126Z,1003.44
2023-04-25T04:44:45.113Z,1003.44
2023-04-25T04:45:45.119Z,1003.51
2023-04-25T04:46:45.106Z,1003.51
2023-04-25T04:47:45.113Z,1003.46
2023-04-25T04:48:45.064Z,1003.48
2023-04-25T04:49:45.050Z,1003.48
2023-04-25T04:50:45.046Z,1003.47
2023-04-25T04:51:45.027Z,1003.49
2023-04-25T04:52:45.035Z,1003.52
2023-04-25T04:53:44.998Z,1003.51
2023-04-25T04:54:44.997Z,1003.51
2023-04-25T04:55:45.005Z,1003.50
2023-04-25T04:56:44.974Z,1003.55
2023-04-25T04:57:44.960Z,1003.53
2023-04-25T04:58:44.966Z,1003.58
2023-04-25T04:59:44.964Z,1003.54
2023-04-25T05:00:44.966Z,1003.54
2023-04-25T05:01:44.972Z,1003.53
2023-04-25T05:02:45.068Z,1003.47
2023-04-25T05:03:45.104Z,1003.53
2023-04-25T05:04:44.978Z,1003.60
2023-04-25T05:05:44.882Z,1003.61
2023-04-25T05:06:46.885Z,1003.61
2023-04-25T05:07:44.884Z,1003.53
2023-04-25T05:08:44.866Z,1003.57
2023-04-25T05:09:44.844Z,1003.58
2023-04-25T05:10:44.861Z,1003.68
2023-04-25T05:11:44.801Z,1003.64
2023-04-25T05:12:44.808Z,1003.62
2023-04-25T05:13:44.830Z,1003.60
2023-04-25T05:14:44.788Z,1003.64
2023-04-25T05:15:44.772Z,1003.64
2023-04-25T05:16:44.892Z,1003.64
2023-04-25T05:17:44.858Z,1003.69
2023-04-25T05:18:44.738Z,1003.68
2023-04-25T05:19:44.735Z,1003.66
2023-04-25T05:20:44.703Z,1003.72
2023-04-25T05:21:44.710Z,1003.76
2023-04-25T05:22:44.764Z,1003.75
2023-04-25T05:23:44.720Z,1003.79
2023-04-25T05:24:44.685Z,1003.74
2023-04-25T05:25:44.701Z,1003.81
2023-04-25T05:26:44.643Z,1003.77
2023-04-25T05:27:44.698Z,1003.81
2023-04-25T05:28:44.821Z,1003.72
2023-04-25T05:29:52.498Z,1003.82
2023-04-25T05:30:44.646Z,1003.82
2023-04-25T05:31:44.644Z,1003.80
2023-04-25T05:32:44.599Z,1003.83
2023-04-25T05:33:44.601Z,1003.80
2023-04-25T05:34:44.620Z,1003.81
2023-04-25T05:35:44.545Z,1003.81
2023-04-25T05:36:44.552Z,1003.83
2023-04-25T05:37:44.542Z,1003.82
2023-04-25T05:38:44.549Z,1003.84
2023-04-25T05:39:44.524Z,1003.84
2023-04-25T05:40:44.491Z,1003.88
2023-04-25T05:41:44.493Z,1003.80
2023-04-25T05:42:44.503Z,1003.88
2023-04-25T05:43:44.478Z,1003.85
2023-04-25T05:44:44.484Z,1003.87
2023-04-25T05:45:44.481Z,1003.89
2023-04-25T05:46:44.421Z,1003.90
2023-04-25T05:47:44.517Z,1003.89
2023-04-25T05:48:44.424Z,1003.93
2023-04-25T05:49:44.424Z,1003.89
2023-04-25T05:50:44.386Z,1003.91
2023-04-25T05:51:44.378Z,1003.95
2023-04-25T05:52:44.410Z,1003.94
2023-04-25T05:53:44.362Z,1003.92
2023-04-25T05:54:44.401Z,1003.92
2023-04-25T05:55:44.344Z,1003.95
2023-04-25T05:56:44.310Z,1003.98
2023-04-25T05:57:44.298Z,1003.98
2023-04-25T05:58:44.303Z,1003.99
2023-04-25T05:59:44.297Z,1003.96
2023-04-25T06:00:44.561Z,1004.00
2023-04-25T06:01:44.333Z,1004.00
2023-04-25T06:02:44.360Z,1004.05
2023-04-25T06:03:44.450Z,1004.07
2023-04-25T06:04:44.344Z,1004.09
2023-04-25T06:05:44.295Z,1004.01
2023-04-25T06:06:45.117Z,1004.09
2023-04-25T06:07:44.204Z,1004.17
2023-04-25T06:08:45.005Z,1004.13
2023-04-25T06:09:44.147Z,1004.07
2023-04-25T06:10:44.136Z,1004.09
2023-04-25T06:11:44.150Z,1004.13
2023-04-25T06:12:44.159Z,1004.20
2023-04-25T06:13:44.972Z,1004.16
2023-04-25T06:14:44.136Z,1004.20
2023-04-25T06:15:44.160Z,1004.21
2023-04-25T06:16:44.146Z,1004.17
2023-04-25T06:17:44.130Z,1004.21
2023-04-25T06:18:44.082Z,1004.22
2023-04-25T06:19:45.535Z,1004.15
2023-04-25T06:20:44.051Z,1004.17
2023-04-25T06:21:44.097Z,1004.19
2023-04-25T06:22:44.022Z,1004.21
2023-04-25T06:23:43.997Z,1004.19
2023-04-25T06:24:44.041Z,1004.27
2023-04-25T06:25:44.003Z,1004.16
2023-04-25T06:26:44.010Z,1004.22
2023-04-25T06:27:43.976Z,1004.16
2023-04-25T06:28:43.939Z,1004.20
2023-04-25T06:29:43.972Z,1004.23
2023-04-25T06:30:43.924Z,1004.24
2023-04-25T06:31:43.975Z,1004.19
2023-04-25T06:32:43.971Z,1004.21
2023-04-25T06:33:43.938Z,1004.21
2023-04-25T06:34:43.954Z,1004.24
2023-04-25T06:35:43.894Z,1004.21
2023-04-25T06:36:43.872Z,1004.23
2023-04-25T06:37:43.989Z,1004.24
2023-04-25T06:38:43.835Z,1004.24
2023-04-25T06:39:43.842Z,1004.25
2023-04-25T06:40:43.974Z,1004.22
2023-04-25T06:41:43.815Z,1004.19
2023-04-25T06:42:43.809Z,1004.21
2023-04-25T06:43:43.783Z,1004.26
2023-04-25T06:44:43.781Z,1004.27
2023-04-25T06:45:44.780Z,1004.27
2023-04-25T06:46:43.782Z,1004.28
2023-04-25T06:47:43.796Z,1004.25
2023-04-25T06:48:43.759Z,1004.30
2023-04-25T06:49:43.730Z,1004.33
2023-04-25T06:50:43.737Z,1004.29
2023-04-25T06:51:43.764Z,1004.32
2023-04-25T06:52:43.668Z,1004.33
2023-04-25T06:53:43.812Z,1004.34
2023-04-25T06:54:43.741Z,1004.38
2023-04-25T06:55:43.733Z,1004.34
2023-04-25T06:56:43.659Z,1004.37
2023-04-25T06:57:43.630Z,1004.39
2023-04-25T06:58:43.730Z,1004.37
2023-04-25T06:59:43.663Z,1004.38
2023-04-25T07:00:43.708Z,1004.43
2023-04-25T07:01:43.588Z,1004.41
2023-04-25T07:02:43.727Z,1004.43
2023-04-25T07:03:43.805Z,1004.45
2023-04-25T07:04:43.656Z,1004.44
2023-04-25T07:05:43.551Z,1004.44
2023-04-25T07:06:43.609Z,1004.45
2023-04-25T07:07:43.524Z,1004.44
2023-04-25T07:08:43.599Z,1004.41
2023-04-25T07:09:43.514Z,1004.44
2023-04-25T07:10:43.497Z,1004.40
2023-04-25T07:11:43.516Z,1004.41
2023-04-25T07:12:43.483Z,1004.39
2023-04-25T07:13:43.463Z,1004.38
2023-04-25T07:14:43.483Z,1004.35
2023-04-25T07:15:43.436Z,1004.38
2023-04-25T07:16:43.505Z,1004.40
2023-04-25T07:17:43.469Z,1004.47
2023-04-25T07:18:43.490Z,1004.44
2023-04-25T07:19:43.420Z,1004.46
2023-04-25T07:20:43.389Z,1004.45
2023-04-25T07:21:43.396Z,1004.43
2023-04-25T07:22:43.456Z,1004.49
2023-04-25T07:23:43.336Z,1004.46
2023-04-25T07:24:43.353Z,1004.44
2023-04-25T07:25:43.352Z,1004.46
2023-04-25T07:26:43.405Z,1004.47
2023-04-25T07:27:43.296Z,1004.48
2023-04-25T07:28:43.274Z,1004.50
2023-04-25T07:29:43.324Z,1004.54
2023-04-25T07:30:44.038Z,1004.48
2023-04-25T07:31:43.570Z,1004.49
2023-04-25T07:32:43.311Z,1004.51
2023-04-25T07:33:43.217Z,1004.53
2023-04-25T07:34:43.236Z,1004.47
2023-04-25T07:35:43.229Z,1004.48
2023-04-25T07:36:43.260Z,1004.57
2023-04-25T07:37:43.194Z,1004.54
2023-04-25T07:38:44.035Z,1004.55
2023-04-25T07:39:43.189Z,1004.53
2023-04-25T07:40:43.167Z,1004.53
2023-04-25T07:41:43.194Z,1004.54
2023-04-25T07:42:43.164Z,1004.51
2023-04-25T07:43:43.112Z,1004.49
2023-04-25T07:44:43.117Z,1004.58
2023-04-25T07:45:43.100Z,1004.62
2023-04-25T07:46:43.068Z,1004.57
2023-04-25T07:47:43.102Z,1004.63
2023-04-25T07:48:43.088Z,1004.63
2023-04-25T07:49:43.066Z,1004.59
2023-04-25T07:50:43.117Z,1004.62
2023-04-25T07:51:43.006Z,1004.61
2023-04-25T07:52:43.026Z,1004.66
2023-04-25T07:53:43.549Z,1004.65
2023-04-25T07:54:43.023Z,1004.65
2023-04-25T07:55:43.048Z,1004.64
2023-04-25T07:56:51.934Z,1004.73
2023-04-25T07:57:43.985Z,1004.68
2023-04-25T07:58:43.076Z,1004.81
2023-04-25T07:59:42.922Z,1004.77
2023-04-25T08:00:42.973Z,1004.81
2023-04-25T08:01:42.990Z,1004.80
2023-04-25T08:02:43.032Z,1004.84
2023-04-25T08:03:43.234Z,1004.89
2023-04-25T08:04:43.008Z,1004.74
2023-04-25T08:05:42.992Z,1004.82
2023-04-25T08:06:43.240Z,1004.96
2023-04-25T08:07:42.856Z,1004.86
2023-04-25T08:08:42.846Z,1004.86
2023-04-25T08:09:43.081Z,1004.83
2023-04-25T08:10:42.994Z,1004.88
2023-04-25T08:11:42.882Z,1004.92
2023-04-25T08:12:42.800Z,1005.01
2023-04-25T08:13:42.798Z,1004.91
2023-04-25T08:14:43.032Z,1005.00
2023-04-25T08:15:42.891Z,1004.95
2023-04-25T08:16:42.753Z,1004.94
2023-04-25T08:17:42.912Z,1004.97
2023-04-25T08:18:42.837Z,1005.01
2023-04-25T08:19:42.739Z,1004.97
2023-04-25T08:20:42.726Z,1005.13
2023-04-25T08:21:42.694Z,1005.06
2023-04-25T08:22:42.697Z,1005.13
2023-04-25T08:23:42.664Z,1005.13
2023-04-25T08:24:42.691Z,1005.07
2023-04-25T08:25:42.707Z,1005.11
2023-04-25T08:26:42.801Z,1005.16
2023-04-25T08:27:42.631Z,1005.16
2023-04-25T08:28:42.698Z,1005.14
2023-04-25T08:29:42.718Z,1005.19
2023-04-25T08:30:42.628Z,1005.19
2023-04-25T08:31:42.703Z,1005.19
2023-04-25T08:32:43.051Z,1005.19
2023-04-25T08:33:42.834Z,1005.14
2023-04-25T08:34:42.608Z,1005.17
2023-04-25T08:35:42.535Z,1005.24
2023-04-25T08:36:43.123Z,1005.21
2023-04-25T08:37:42.521Z,1005.35
2023-04-25T08:38:42.503Z,1005.25
2023-04-25T08:39:43.046Z,1005.47
2023-04-25T08:40:42.489Z,1005.45
2023-04-25T08:41:42.486Z,1005.36
2023-04-25T08:42:42.470Z,1005.42
2023-04-25T08:43:42.443Z,1005.45
2023-04-25T08:44:42.471Z,1005.41
2023-04-25T08:45:42.452Z,1005.51
2023-04-25T08:46:42.566Z,1005.47
2023-04-25T08:47:42.655Z,1005.45
2023-04-25T08:48:42.523Z,1005.47
2023-04-25T08:49:42.386Z,1005.48
2023-04-25T08:50:42.547Z,1005.56
2023-04-25T08:51:42.357Z,1005.57
2023-04-25T08:52:42.397Z,1005.57
2023-04-25T08:53:43.387Z,1005.51
2023-04-25T08:54:42.459Z,1005.61
2023-04-25T08:55:42.401Z,1005.64
2023-04-25T08:56:42.289Z,1005.73
2023-04-25T08:57:42.285Z,1005.70
2023-04-25T08:58:42.529Z,1005.68
2023-04-25T08:59:42.284Z,1005.76
2023-04-25T09:00:42.780Z,1005.74
2023-04-25T09:01:42.610Z,1005.78
2023-04-25T09:02:42.338Z,1005.73
2023-04-25T09:03:42.347Z,1005.77
2023-04-25T09:04:42.232Z,1005.80
2023-04-25T09:05:42.228Z,1005.80
2023-04-25T09:06:42.209Z,1005.82
2023-04-25T09:07:42.203Z,1005.86
2023-04-25T09:08:42.170Z,1005.94
2023-04-25T09:09:43.049Z,1005.91
2023-04-25T09:10:42.243Z,1005.82
2023-04-25T09:11:42.135Z,1005.87
2023-04-25T09:12:42.196Z,1005.87
2023-04-25T09:13:42.465Z,1005.92
2023-04-25T09:14:42.185Z,1005.94
2023-04-25T09:15:42.164Z,1006.00
2023-04-25T09:16:42.116Z,1005.97
2023-04-25T09:17:42.647Z,1005.90
2023-04-25T09:18:48.388Z,1005.95
2023-04-25T09:19:43.110Z,1005.99
2023-04-25T09:20:59.514Z,1005.96
2023-04-25T09:21:43.018Z,1006.02
2023-04-25T09:22:42.065Z,1005.95
2023-04-25T09:23:42.062Z,1006.04
2023-04-25T09:24:41.999Z,1006.06
2023-04-25T09:25:41.968Z,1006.01
2023-04-25T09:26:41.999Z,1005.91
2023-04-25T09:27:41.964Z,1005.98
2023-04-25T09:28:42.650Z,1005.94
2023-04-25T09:29:42.211Z,1005.95
2023-04-25T09:30:41.992Z,1005.91
2023-04-25T09:31:42.011Z,1005.97
2023-04-25T09:32:41.962Z,1005.99
2023-04-25T09:33:41.950Z,1005.96
2023-04-25T09:34:41.888Z,1005.91
2023-04-25T09:35:41.885Z,1005.95
2023-04-25T09:36:41.879Z,1005.99
2023-04-25T09:37:41.943Z,1006.04
2023-04-25T09:38:42.624Z,1005.95
2023-04-25T09:39:41.875Z,1005.93
2023-04-25T09:40:41.852Z,1005.99
2023-04-25T09:41:41.838Z,1005.98
2023-04-25T09:42:41.919Z,1006.04
2023-04-25T09:43:42.059Z,1006.04
2023-04-25T09:44:42.541Z,1006.01
2023-04-25T09:45:41.863Z,1006.08
2023-04-25T09:46:41.925Z,1006.06
2023-04-25T09:47:42.559Z,1006.06
2023-04-25T09:48:41.731Z,1006.01
2023-04-25T09:49:41.765Z,1006.07
2023-04-25T09:50:41.734Z,1006.01
2023-04-25T09:51:41.692Z,1006.14
2023-04-25T09:52:41.705Z,1006.08
2023-04-25T09:53:42.537Z,1006.12
2023-04-25T09:54:41.696Z,1006.10
2023-04-25T09:55:41.673Z,1006.16
2023-04-25T09:56:41.736Z,1006.30
2023-04-25T09:57:41.620Z,1006.19
2023-04-25T09:58:42.510Z,1006.08
2023-04-25T09:59:41.638Z,1006.18
2023-04-25T10:00:41.648Z,1006.17
2023-04-25T10:01:41.719Z,1006.11
2023-04-25T10:02:41.746Z,1006.15
2023-04-25T10:03:41.825Z,1006.17
2023-04-25T10:04:41.595Z,1006.16
2023-04-25T10:05:41.617Z,1006.14
2023-04-25T10:06:41.550Z,1006.20
2023-04-25T10:07:41.520Z,1006.18
2023-04-25T10:08:41.551Z,1006.20
2023-04-25T10:09:41.565Z,1006.21
2023-04-25T10:10:41.503Z,1006.21
2023-04-25T10:11:41.450Z,1006.27
2023-04-25T10:12:41.533Z,1006.32
2023-04-25T10:13:41.441Z,1006.31
2023-04-25T10:14:42.019Z,1006.41
2023-04-25T10:15:41.437Z,1006.26
2023-04-25T10:16:41.436Z,1006.32
2023-04-25T10:17:41.424Z,1006.35
2023-04-25T10:18:41.418Z,1006.51
2023-04-25T10:19:41.426Z,1006.40
2023-04-25T10:20:41.381Z,1006.43
2023-04-25T10:21:41.380Z,1006.42
2023-04-25T10:22:41.332Z,1006.39
2023-04-25T10:23:41.376Z,1006.33
2023-04-25T10:24:41.420Z,1006.38
2023-04-25T10:25:41.334Z,1006.34
2023-04-25T10:26:41.303Z,1006.37
2023-04-25T10:27:41.315Z,1006.51
2023-04-25T10:28:41.290Z,1006.38
2023-04-25T10:29:41.312Z,1006.45
2023-04-25T10:30:41.293Z,1006.42
2023-04-25T10:31:41.541Z,1006.44
2023-04-25T10:32:41.237Z,1006.47
2023-04-25T10:33:41.278Z,1006.46
2023-04-25T10:34:41.533Z,1006.41
2023-04-25T10:35:41.335Z,1006.51
2023-04-25T10:36:41.194Z,1006.53
2023-04-25T10:37:41.280Z,1006.62
2023-04-25T10:38:41.159Z,1006.52
2023-04-25T10:39:41.201Z,1006.60
2023-04-25T10:40:41.280Z,1006.61
2023-04-25T10:41:41.288Z,1006.61
2023-04-25T10:42:41.252Z,1006.68
2023-04-25T10:43:41.141Z,1006.61
2023-04-25T10:44:41.116Z,1006.69
2023-04-25T10:45:41.084Z,1006.81
2023-04-25T10:46:41.243Z,1006.65
2023-04-25T10:47:41.123Z,1006.62
2023-04-25T10:48:41.052Z,1006.67
2023-04-25T10:49:41.025Z,1006.63
2023-04-25T10:50:42.008Z,1006.60
2023-04-25T10:51:55.019Z,1006.64
2023-04-25T10:52:42.065Z,1006.57
2023-04-25T10:53:41.541Z,1006.61
2023-04-25T10:54:41.051Z,1006.65
2023-04-25T10:55:40.977Z,1006.54
2023-04-25T10:56:41.007Z,1006.57
2023-04-25T10:57:40.999Z,1006.65
2023-04-25T10:58:40.979Z,1006.62
2023-04-25T10:59:40.943Z,1006.62
2023-04-25T11:00:48.267Z,1006.55
2023-04-25T11:01:41.962Z,1006.57
2023-04-25T11:02:40.984Z,1006.66
2023-04-25T11:03:41.012Z,1006.58
2023-04-25T11:04:41.107Z,1006.51
2023-04-25T11:05:51.016Z,1006.66
2023-04-25T11:06:41.926Z,1006.62
2023-04-25T11:07:40.887Z,1006.59
2023-04-25T11:08:40.860Z,1006.65
2023-04-25T11:09:40.855Z,1006.68
2023-04-25T11:10:40.844Z,1006.63
2023-04-25T11:11:40.776Z,1006.60
2023-04-25T11:12:40.819Z,1006.67
2023-04-25T11:13:40.857Z,1006.71
2023-04-25T11:15:40.741Z,1006.69
2023-04-25T11:16:40.784Z,1006.77
2023-04-25T11:17:40.801Z,1006.62
2023-04-25T11:18:41.505Z,1006.68
2023-04-25T11:19:40.717Z,1006.61
2023-04-25T11:20:40.729Z,1006.59
2023-04-25T11:21:40.697Z,1006.70
2023-04-25T11:22:40.866Z,1006.57
2023-04-25T11:23:40.664Z,1006.62
2023-04-25T11:24:40.688Z,1006.68
2023-04-25T11:25:40.728Z,1006.61
2023-04-25T11:26:40.649Z,1006.59
2023-04-25T11:27:40.637Z,1006.72
2023-04-25T11:28:40.596Z,1006.67
2023-04-25T11:29:40.642Z,1006.61
2023-04-25T11:30:40.720Z,1006.60
2023-04-25T11:31:40.603Z,1006.61
2023-04-25T11:32:40.675Z,1006.66
2023-04-25T11:33:40.539Z,1006.64
2023-04-25T11:34:40.519Z,1006.62
2023-04-25T11:35:40.546Z,1006.54
2023-04-25T11:36:40.526Z,1006.72
2023-04-25T11:37:40.525Z,1006.78
2023-04-25T11:38:40.495Z,1006.67
2023-04-25T11:39:40.463Z,1006.63
2023-04-25T11:40:40.502Z,1006.67
2023-04-25T11:41:41.590Z,1006.68
2023-04-25T11:42:40.440Z,1006.67
2023-04-25T11:43:43.330Z,1006.59
2023-04-25T11:44:40.455Z,1006.56
2023-04-25T11:45:40.393Z,1006.52
2023-04-25T11:46:40.530Z,1006.46
2023-04-25T11:47:40.423Z,1006.54
2023-04-25T11:48:40.370Z,1006.56
2023-04-25T11:49:40.404Z,1006.53
2023-04-25T11:50:40.381Z,1006.62
2023-04-25T11:51:40.345Z,1006.66
2023-04-25T11:52:40.352Z,1006.63
2023-04-25T11:53:40.318Z,1006.73
2023-04-25T11:54:40.335Z,1006.70
2023-04-25T11:55:40.308Z,1006.74
2023-04-25T11:56:40.291Z,1006.75
2023-04-25T11:57:40.379Z,1006.77
2023-04-25T11:58:40.245Z,1006.81
2023-04-25T11:59:40.659Z,1006.82
2023-04-25T12:00:40.266Z,1006.85
2023-04-25T12:01:41.248Z,1006.85
2023-04-25T12:02:40.388Z,1006.90
2023-04-25T12:03:40.479Z,1006.87
2023-04-25T12:04:40.527Z,1006.87
2023-04-25T12:05:40.355Z,1006.81
2023-04-25T12:06:41.030Z,1006.86